Time;durP1;ratioP1;P1;durP2;ratioP2;P2;SDS_P1;SDS_P2;PMS_P1;PMS_P2;Temp;Humidity;BMP_temperature;BMP_pressure;BME280_temperature;BME280_humidity;BME280_pressure;Samples;Min_cycle;Max_cycle;Signal;HPM_P1;HPM_P2
2022/04/07 00:00:01;;;;;;;1.07;0.90;;;11.80;99.90;;;;;;5058307;28;21045;-78
2022/04/07 00:02:30;;;;;;;1.30;0.90;;;11.90;1.00;;;;;;5063483;28;20491;-79
2022/04/07 00:04:58;;;;;;;0.93;0.83;;;11.70;99.90;;;;;;5065235;28;20472;-76
2022/04/07 00:07:26;;;;;;;2.10;0.93;;;11.60;99.90;;;;;;5069899;28;20467;-77
2022/04/07 00:09:56;;;;;;;0.90;0.80;;;11.60;4.70;;;;;;5053937;28;20475;-77
2022/04/07 00:12:24;;;;;;;0.80;0.70;;;11.70;1.00;;;;;;5061535;28;20474;-77
2022/04/07 00:14:52;;;;;;;0.80;0.80;;;11.80;99.90;;;;;;5061196;28;20451;-78
2022/04/07 00:17:20;;;;;;;1.37;0.70;;;11.80;99.90;;;;;;5065747;28;20455;-78
2022/04/07 00:19:49;;;;;;;0.80;0.80;;;11.90;1.00;;;;;;5061881;28;20450;-77
2022/04/07 00:22:17;;;;;;;1.27;1.17;;;11.90;1.00;;;;;;5065723;28;20475;-77
2022/04/07 00:24:46;;;;;;;0.80;0.70;;;11.70;73.60;;;;;;5064149;28;20443;-78
2022/04/07 00:27:16;;;;;;;1.00;0.80;;;11.60;99.90;;;;;;5069672;28;21003;-78
2022/04/07 00:29:44;;;;;;;0.60;0.60;;;11.40;52.80;;;;;;5065739;28;20541;-78
2022/04/07 00:32:12;;;;;;;0.80;0.80;;;11.50;1.00;;;;;;5066046;28;20540;-78
2022/04/07 00:34:44;;;;;;;2.07;0.73;;;11.80;1.00;;;;;;5061875;28;20464;-80
2022/04/07 00:37:12;;;;;;;0.90;0.90;;;11.50;1.00;;;;;;5059861;28;20505;-77
2022/04/07 00:39:40;;;;;;;1.10;0.90;;;11.60;99.90;;;;;;5065158;28;20462;-78
2022/04/07 00:42:09;;;;;;;0.93;0.73;;;11.50;1.00;;;;;;5063458;28;20472;-78
2022/04/07 00:44:38;;;;;;;0.90;0.90;;;11.50;95.90;;;;;;5056689;28;20458;-79
2022/04/07 00:47:07;;;;;;;0.67;0.67;;;11.50;1.00;;;;;;5061164;28;20474;-78
2022/04/07 00:49:36;;;;;;;1.00;0.80;;;11.60;99.90;;;;;;5059230;28;21255;-78
2022/04/07 00:52:07;;;;;;;0.77;0.60;;;11.80;1.00;;;;;;5063326;28;21016;-77
2022/04/07 00:54:35;;;;;;;0.90;0.70;;;11.90;99.90;;;;;;5055083;28;20458;-78
2022/04/07 00:57:04;;;;;;;0.60;0.60;;;12.10;99.90;;;;;;5059219;28;20455;-78
2022/04/07 00:59:35;;;;;;;0.60;0.60;;;12.00;1.00;;;;;;5059823;28;20487;-78
2022/04/07 01:02:05;;;;;;;0.80;0.80;;;11.80;1.00;;;;;;5065185;28;20569;-79
2022/04/07 01:04:33;;;;;;;0.60;0.60;;;11.90;99.90;;;;;;5057145;28;20468;-79
2022/04/07 01:07:01;;;;;;;0.60;0.60;;;11.80;99.90;;;;;;5062912;28;20440;-79
2022/04/07 01:09:30;;;;;;;0.70;0.67;;;11.70;99.90;;;;;;5055439;28;20463;-79
2022/04/07 01:11:59;;;;;;;0.90;0.60;;;11.50;1.00;;;;;;5068351;28;20476;-79
2022/04/07 01:14:27;;;;;;;0.60;0.60;;;11.50;1.00;;;;;;5059002;28;20466;-79
2022/04/07 01:16:55;;;;;;;0.70;0.70;;;11.70;99.90;;;;;;5057165;28;20459;-79
2022/04/07 01:19:24;;;;;;;0.53;0.53;;;11.80;1.00;;;;;;5056372;28;20458;-79
2022/04/07 01:21:52;;;;;;;0.57;0.57;;;11.90;1.00;;;;;;5065238;28;20462;-79
2022/04/07 01:24:30;;;;;;;0.80;0.80;;;11.80;1.00;;;;;;5064544;28;20500;-78
2022/04/07 01:26:58;;;;;;;4.27;0.80;;;11.50;99.90;;;;;;5062489;28;20458;-78
2022/04/07 01:29:26;;;;;;;0.63;0.60;;;11.50;99.90;;;;;;5057828;28;20462;-78
2022/04/07 01:31:55;;;;;;;0.63;0.63;;;11.30;99.90;;;;;;5059386;28;20490;-78
2022/04/07 01:34:23;;;;;;;0.80;0.70;;;11.40;1.00;;;;;;5063816;28;20461;-80
2022/04/07 01:36:53;;;;;;;0.60;0.60;;;11.40;99.90;;;;;;5057921;28;20466;-79
2022/04/07 01:39:26;;;;;;;0.60;0.60;;;11.30;99.90;;;;;;5056092;28;20542;-78
2022/04/07 01:41:56;;;;;;;1.10;1.00;;;11.40;99.90;;;;;;5064871;28;20524;-78
2022/04/07 01:44:26;;;;;;;0.50;0.50;;;11.20;99.90;;;;;;5057625;28;20469;-79
2022/04/07 01:46:55;;;;;;;0.77;0.77;;;11.30;38.20;;;;;;5065272;28;20483;-79
2022/04/07 01:49:25;;;;;;;0.60;0.60;;;11.30;1.00;;;;;;5059933;28;20687;-80
2022/04/07 01:51:53;;;;;;;0.60;0.50;;;11.40;1.00;;;;;;5062319;28;20470;-79
2022/04/07 01:54:21;;;;;;;2.33;0.80;;;11.60;99.90;;;;;;5066687;28;20438;-77
2022/04/07 01:56:51;;;;;;;2.00;0.80;;;11.60;99.90;;;;;;5066165;28;20451;-79
2022/04/07 01:59:21;;;;;;;0.60;0.60;;;11.70;95.60;;;;;;5063345;28;20444;-77
2022/04/07 02:01:50;;;;;;;0.93;0.70;;;11.70;99.90;;;;;;5063871;28;20480;-79
2022/04/07 02:04:18;;;;;;;0.60;0.60;;;11.50;1.00;;;;;;5059377;28;20467;-80
2022/04/07 02:06:46;;;;;;;0.77;0.60;;;11.30;99.90;;;;;;5054048;28;20536;-79
2022/04/07 02:09:14;;;;;;;0.60;0.60;;;11.50;1.00;;;;;;5049802;28;20458;-79
2022/04/07 02:11:44;;;;;;;1.20;0.97;;;11.50;99.90;;;;;;5056143;28;20538;-80
2022/04/07 02:14:13;;;;;;;0.67;0.67;;;11.10;99.90;;;;;;5061818;28;20456;-78
2022/04/07 02:16:43;;;;;;;0.70;0.70;;;10.80;7.50;;;;;;5057912;28;20458;-78
2022/04/07 02:19:11;;;;;;;0.67;0.67;;;10.70;99.90;;;;;;5064132;28;20511;-80
2022/04/07 02:21:39;;;;;;;0.50;0.50;;;10.90;1.00;;;;;;5068047;28;20515;-79
2022/04/07 02:24:10;;;;;;;1.33;0.70;;;10.80;99.90;;;;;;5067512;28;20470;-79
2022/04/07 02:26:38;;;;;;;0.70;0.60;;;10.80;99.90;;;;;;5065038;28;21149;-79
2022/04/07 02:29:06;;;;;;;0.60;0.60;;;10.70;1.00;;;;;;5071333;28;20531;-79
2022/04/07 02:31:35;;;;;;;1.47;0.50;;;10.90;99.90;;;;;;5069303;28;20476;-79
2022/04/07 02:34:04;;;;;;;0.90;0.70;;;10.80;99.90;;;;;;5068756;28;21040;-78
2022/04/07 02:36:32;;;;;;;0.77;0.77;;;11.00;99.90;;;;;;5063942;28;21024;-79
2022/04/07 02:39:01;;;;;;;0.60;0.60;;;11.10;1.00;;;;;;5066982;28;20459;-77
2022/04/07 02:41:33;;;;;;;0.60;0.60;;;10.90;99.90;;;;;;5060519;28;21176;-79
2022/04/07 02:44:03;;;;;;;1.33;0.57;;;10.60;99.90;;;;;;5061653;28;20481;-78
2022/04/07 02:46:31;;;;;;;0.50;0.50;;;10.50;99.90;;;;;;5063021;28;20457;-79
2022/04/07 02:48:59;;;;;;;0.53;0.53;;;10.50;99.90;;;;;;5069189;28;20466;-79
2022/04/07 02:51:31;;;;;;;0.70;0.50;;;10.40;99.90;;;;;;5074420;28;20489;-78
2022/04/07 02:53:59;;;;;;;1.17;1.17;;;10.50;99.90;;;;;;5069893;28;20455;-78
2022/04/07 02:56:28;;;;;;;0.50;0.50;;;10.50;99.90;;;;;;5070575;28;20459;-78
2022/04/07 02:58:56;;;;;;;0.73;0.70;;;10.40;1.00;;;;;;5062053;28;21391;-77
2022/04/07 03:01:29;;;;;;;0.50;0.50;;;10.40;99.90;;;;;;5058584;28;20464;-80
2022/04/07 03:03:58;;;;;;;1.37;0.50;;;10.50;99.90;;;;;;5065447;28;21027;-79
2022/04/07 03:06:26;;;;;;;1.40;0.60;;;10.50;99.90;;;;;;5064138;28;20978;-79
2022/04/07 03:08:56;;;;;;;0.50;0.50;;;10.80;99.90;;;;;;5066438;28;20482;-78
2022/04/07 03:11:24;;;;;;;0.70;0.67;;;10.30;99.90;;;;;;5058862;28;20698;-78
2022/04/07 03:13:52;;;;;;;0.70;0.70;;;10.50;99.90;;;;;;5057056;28;20465;-77
2022/04/07 03:16:20;;;;;;;0.50;0.50;;;10.50;99.90;;;;;;5057514;28;21027;-78
2022/04/07 03:18:48;;;;;;;0.53;0.53;;;10.60;99.90;;;;;;5065519;28;20452;-78
2022/04/07 03:21:16;;;;;;;0.40;0.40;;;10.60;99.90;;;;;;5054859;28;20473;-78
2022/04/07 03:23:45;;;;;;;1.93;0.70;;;10.60;99.90;;;;;;5063690;28;20485;-77
2022/04/07 03:26:14;;;;;;;1.13;0.60;;;10.60;99.90;;;;;;5059747;28;20811;-78
2022/04/07 03:28:42;;;;;;;0.60;0.60;;;10.80;99.90;;;;;;5068220;28;20462;-77
2022/04/07 03:31:10;;;;;;;0.53;0.53;;;10.50;99.90;;;;;;5059495;28;20457;-77
2022/04/07 03:33:38;;;;;;;0.50;0.50;;;10.80;99.90;;;;;;5059210;28;20453;-78
2022/04/07 03:36:07;;;;;;;0.60;0.60;;;10.50;99.90;;;;;;5059681;28;20473;-77
2022/04/07 03:38:37;;;;;;;0.57;0.57;;;10.50;99.90;;;;;;5066766;28;20457;-78
2022/04/07 03:41:06;;;;;;;0.50;0.50;;;10.60;99.90;;;;;;5063914;28;20452;-78
2022/04/07 03:43:36;;;;;;;0.70;0.70;;;10.50;99.90;;;;;;5063189;28;21141;-78
2022/04/07 03:46:04;;;;;;;2.00;0.70;;;10.50;99.90;;;;;;5057495;28;20457;-78
2022/04/07 03:48:33;;;;;;;0.70;0.60;;;10.40;99.90;;;;;;5065434;28;20517;-78
2022/04/07 03:51:01;;;;;;;2.13;0.50;;;10.40;1.00;;;;;;5067373;28;20460;-78
2022/04/07 03:53:29;;;;;;;0.80;0.70;;;10.50;99.90;;;;;;5065351;28;20530;-79
2022/04/07 03:55:58;;;;;;;0.83;0.60;;;10.50;99.90;;;;;;5062670;28;20454;-77
2022/04/07 03:58:29;;;;;;;1.33;0.50;;;10.50;99.90;;;;;;5065176;28;20468;-78
2022/04/07 04:00:59;;;;;;;1.83;0.60;;;10.50;99.90;;;;;;5064448;28;20445;-76
2022/04/07 04:03:27;;;;;;;1.53;0.63;;;10.50;99.90;;;;;;5062885;28;20498;-78
2022/04/07 04:05:56;;;;;;;0.73;0.73;;;10.40;99.90;;;;;;5062984;28;20486;-77
2022/04/07 04:08:24;;;;;;;0.63;0.63;;;10.40;99.90;;;;;;5064538;28;20522;-79
2022/04/07 04:10:52;;;;;;;0.60;0.60;;;10.50;99.90;;;;;;5059979;28;20463;-78
2022/04/07 04:13:20;;;;;;;0.80;0.80;;;10.30;99.90;;;;;;5057212;28;20488;-79
2022/04/07 04:15:50;;;;;;;1.50;0.80;;;10.20;99.90;;;;;;5056627;28;20462;-79
2022/04/07 04:18:19;;;;;;;1.30;0.80;;;10.40;99.90;;;;;;5062255;28;20458;-79
2022/04/07 04:20:47;;;;;;;1.23;0.60;;;10.40;99.90;;;;;;5060176;28;20472;-78
2022/04/07 04:23:16;;;;;;;0.80;0.57;;;10.40;99.90;;;;;;5061428;28;20488;-79
2022/04/07 04:25:44;;;;;;;0.57;0.57;;;10.30;99.90;;;;;;5057749;28;20482;-78
2022/04/07 04:28:12;;;;;;;1.17;0.70;;;10.40;99.90;;;;;;5054724;28;20533;-79
2022/04/07 04:30:40;;;;;;;0.50;0.50;;;10.80;99.90;;;;;;5059411;28;20541;-79
2022/04/07 04:33:08;;;;;;;0.70;0.70;;;10.40;72.50;;;;;;5065362;28;20453;-76
2022/04/07 04:35:38;;;;;;;1.57;0.57;;;10.40;96.80;;;;;;5069147;28;20279;-79
2022/04/07 04:38:06;;;;;;;1.20;0.97;;;10.50;34.90;;;;;;5064223;28;20476;-78
2022/04/07 04:40:34;;;;;;;0.40;0.40;;;10.40;22.00;;;;;;5066184;28;20450;-80
2022/04/07 04:43:02;;;;;;;1.20;0.63;;;10.50;1.00;;;;;;5063921;28;20493;-79
2022/04/07 04:45:30;;;;;;;1.10;0.63;;;10.50;12.40;;;;;;5061802;28;20483;-79
2022/04/07 04:48:00;;;;;;;0.50;0.50;;;10.40;1.00;;;;;;5059557;28;21002;-79
2022/04/07 04:50:28;;;;;;;1.27;0.67;;;10.30;67.40;;;;;;5055693;28;20569;-79
2022/04/07 04:52:58;;;;;;;0.60;0.60;;;10.40;8.80;;;;;;5064071;28;20494;-78
2022/04/07 04:55:26;;;;;;;1.43;0.60;;;10.50;1.00;;;;;;5053914;28;20458;-78
2022/04/07 04:57:55;;;;;;;0.50;0.50;;;10.50;1.00;;;;;;5050802;28;20538;-77
2022/04/07 05:00:23;;;;;;;0.50;0.50;;;10.40;1.00;;;;;;5054580;28;20462;-78
2022/04/07 05:02:51;;;;;;;0.90;0.60;;;10.30;1.00;;;;;;5052529;28;20552;-79
2022/04/07 05:05:20;;;;;;;0.47;0.47;;;10.20;7.70;;;;;;5052636;28;20501;-78
2022/04/07 05:07:48;;;;;;;0.50;0.50;;;10.00;99.90;;;;;;5057197;28;20458;-78
2022/04/07 05:10:18;;;;;;;0.40;0.40;;;10.00;99.90;;;;;;5060937;28;20464;-79
2022/04/07 05:12:46;;;;;;;1.23;0.50;;;10.00;99.90;;;;;;5056194;28;20575;-78
2022/04/07 05:15:15;;;;;;;0.53;0.53;;;10.10;99.90;;;;;;5051290;28;20489;-78
2022/04/07 05:17:47;;;;;;;0.60;0.60;;;10.30;99.90;;;;;;5056653;28;20510;-76
2022/04/07 05:20:15;;;;;;;0.60;0.60;;;10.10;99.90;;;;;;5058041;28;20462;-76
2022/04/07 05:22:44;;;;;;;0.60;0.50;;;10.40;99.90;;;;;;5048990;28;20485;-77
2022/04/07 05:25:12;;;;;;;0.83;0.53;;;10.60;99.90;;;;;;5059046;28;20489;-76
2022/04/07 05:27:45;;;;;;;1.13;0.50;;;10.80;56.00;;;;;;5050300;28;20515;-75
2022/04/07 05:30:15;;;;;;;0.50;0.50;;;10.50;94.40;;;;;;5055080;28;20604;-75
2022/04/07 05:32:44;;;;;;;4.10;0.60;;;10.60;15.10;;;;;;5057173;28;20571;-76
2022/04/07 05:35:13;;;;;;;0.50;0.50;;;10.50;23.50;;;;;;5054899;28;20446;-77
2022/04/07 05:37:41;;;;;;;1.07;0.50;;;10.80;11.00;;;;;;5047715;28;20463;-78
2022/04/07 05:40:11;;;;;;;0.60;0.50;;;10.50;1.00;;;;;;5047304;28;20467;-77
2022/04/07 05:42:41;;;;;;;0.70;0.60;;;10.60;1.00;;;;;;5055283;28;20471;-76
2022/04/07 05:45:10;;;;;;;0.50;0.50;;;10.70;1.00;;;;;;5048586;28;20581;-76
2022/04/07 05:47:41;;;;;;;0.50;0.50;;;10.70;1.00;;;;;;5048546;28;20464;-77
2022/04/07 05:50:11;;;;;;;0.50;0.50;;;10.50;1.00;;;;;;5058610;28;20892;-77
2022/04/07 05:52:39;;;;;;;0.50;0.40;;;10.50;1.00;;;;;;5063532;28;20477;-77
2022/04/07 05:55:08;;;;;;;0.40;0.40;;;10.60;1.00;;;;;;5055520;28;20470;-77
2022/04/07 05:57:36;;;;;;;0.50;0.40;;;10.60;1.00;;;;;;5058225;28;20465;-77
2022/04/07 06:00:10;;;;;;;0.50;0.50;;;10.60;1.00;;;;;;5067367;28;20515;-77
2022/04/07 06:02:38;;;;;;;0.50;0.50;;;10.50;1.00;;;;;;5063797;28;20477;-77
2022/04/07 06:05:08;;;;;;;0.40;0.40;;;10.50;1.00;;;;;;5055110;28;20574;-76
2022/04/07 06:07:36;;;;;;;0.40;0.40;;;10.60;1.00;;;;;;5056935;28;20465;-76
2022/04/07 06:10:06;;;;;;;0.60;0.60;;;10.60;1.00;;;;;;5054298;28;20461;-77
2022/04/07 06:12:34;;;;;;;0.80;0.80;;;10.70;1.00;;;;;;5059200;28;20496;-76
2022/04/07 06:15:02;;;;;;;0.50;0.50;;;10.80;1.00;;;;;;5057112;28;20960;-77
2022/04/07 06:17:35;;;;;;;0.40;0.40;;;10.70;1.00;;;;;;5058963;28;20476;-77
2022/04/07 06:20:06;;;;;;;0.47;0.40;;;10.90;1.00;;;;;;5061307;28;20450;-76
2022/04/07 06:22:34;;;;;;;0.50;0.50;;;10.70;1.00;;;;;;5058292;28;21467;-76
2022/04/07 06:25:03;;;;;;;0.53;0.40;;;10.80;1.00;;;;;;5062591;28;20485;-76
2022/04/07 06:27:35;;;;;;;1.63;0.60;;;10.80;1.00;;;;;;5055160;28;20492;-77
2022/04/07 06:30:05;;;;;;;0.50;0.50;;;10.90;1.00;;;;;;5055298;28;20459;-77
2022/04/07 06:32:36;;;;;;;0.50;0.50;;;11.00;1.00;;;;;;5060285;28;20560;-76
2022/04/07 06:35:05;;;;;;;0.60;0.50;;;10.80;1.00;;;;;;5064087;28;20548;-76
2022/04/07 06:37:33;;;;;;;0.40;0.40;;;10.80;1.00;;;;;;5060888;28;20468;-76
2022/04/07 06:40:02;;;;;;;1.03;0.40;;;10.80;1.00;;;;;;5058170;28;20512;-76
2022/04/07 06:42:30;;;;;;;0.60;0.60;;;11.00;1.00;;;;;;5063365;28;20545;-76
2022/04/07 06:44:58;;;;;;;0.40;0.40;;;10.90;99.90;;;;;;5058468;28;20452;-77
2022/04/07 06:47:26;;;;;;;0.60;0.50;;;11.00;99.90;;;;;;5064589;28;20465;-76
2022/04/07 06:49:56;;;;;;;1.10;0.40;;;11.00;99.90;;;;;;5057557;28;20518;-76
2022/04/07 06:52:24;;;;;;;0.57;0.50;;;10.80;1.00;;;;;;5058005;28;20479;-77
2022/04/07 06:54:52;;;;;;;1.33;0.90;;;10.90;1.00;;;;;;5059523;28;20450;-75
2022/04/07 06:57:20;;;;;;;0.40;0.40;;;11.10;99.90;;;;;;5063693;28;20447;-77
2022/04/07 06:59:49;;;;;;;0.40;0.40;;;11.10;99.90;;;;;;5050515;28;20990;-76
2022/04/07 07:02:17;;;;;;;0.40;0.40;;;11.10;99.90;;;;;;5056210;28;20615;-76
2022/04/07 07:04:46;;;;;;;0.93;0.43;;;11.10;99.90;;;;;;5058946;28;20464;-76
2022/04/07 07:07:16;;;;;;;0.40;0.40;;;11.00;99.90;;;;;;5054530;28;20536;-76
2022/04/07 07:09:44;;;;;;;1.57;0.50;;;11.10;99.90;;;;;;5054252;28;20450;-76
2022/04/07 07:12:12;;;;;;;0.40;0.40;;;11.00;99.90;;;;;;5053107;28;20560;-77
2022/04/07 07:14:41;;;;;;;0.40;0.40;;;11.10;99.90;;;;;;5054645;28;20447;-77
2022/04/07 07:17:10;;;;;;;0.40;0.40;;;10.90;99.90;;;;;;5053709;28;20454;-76
2022/04/07 07:19:39;;;;;;;0.40;0.40;;;11.10;99.90;;;;;;5052729;28;20450;-77
2022/04/07 07:22:07;;;;;;;0.40;0.40;;;11.20;99.90;;;;;;5056587;28;20551;-77
2022/04/07 07:24:37;;;;;;;0.43;0.43;;;11.20;99.90;;;;;;5053915;28;20487;-77
2022/04/07 07:27:05;;;;;;;0.40;0.40;;;11.20;99.90;;;;;;5052257;28;21275;-77
2022/04/07 07:29:33;;;;;;;0.40;0.40;;;11.10;99.90;;;;;;5060444;28;20457;-76
2022/04/07 07:32:02;;;;;;;0.47;0.47;;;11.40;99.90;;;;;;5058420;28;20481;-77
2022/04/07 07:34:30;;;;;;;0.40;0.40;;;11.30;99.90;;;;;;5053651;28;20443;-78
2022/04/07 07:36:58;;;;;;;0.50;0.50;;;11.40;99.90;;;;;;5053037;28;20454;-77
2022/04/07 07:39:28;;;;;;;0.87;0.40;;;11.50;99.90;;;;;;5055346;28;20458;-76
2022/04/07 07:41:58;;;;;;;0.50;0.50;;;11.50;99.90;;;;;;5057708;28;20475;-77
2022/04/07 07:44:26;;;;;;;0.80;0.60;;;11.50;99.90;;;;;;5051302;28;20532;-77
2022/04/07 07:46:54;;;;;;;0.50;0.50;;;11.50;99.90;;;;;;5054568;28;20483;-77
2022/04/07 07:49:22;;;;;;;0.47;0.47;;;11.40;99.90;;;;;;5054417;28;20593;-77
2022/04/07 07:51:51;;;;;;;0.50;0.50;;;11.40;99.90;;;;;;5058397;28;20485;-76
2022/04/07 07:54:19;;;;;;;0.50;0.40;;;11.40;99.90;;;;;;5057686;28;21279;-76
2022/04/07 07:56:47;;;;;;;0.77;0.50;;;11.40;99.90;;;;;;5060253;28;20446;-76
2022/04/07 07:59:20;;;;;;;1.03;0.40;;;11.40;99.90;;;;;;5058983;28;20449;-77
2022/04/07 08:01:48;;;;;;;0.40;0.40;;;11.50;99.90;;;;;;5052075;28;20557;-76
2022/04/07 08:04:17;;;;;;;0.50;0.50;;;11.50;99.90;;;;;;5056586;28;20463;-77
2022/04/07 08:06:45;;;;;;;0.40;0.40;;;11.50;99.90;;;;;;5053137;28;21034;-76
2022/04/07 08:09:14;;;;;;;2.30;0.50;;;11.40;99.90;;;;;;5050314;28;20455;-77
2022/04/07 08:11:42;;;;;;;0.50;0.50;;;11.40;99.90;;;;;;5056061;28;20503;-77
2022/04/07 08:14:11;;;;;;;1.13;0.63;;;11.40;99.90;;;;;;5055532;28;20486;-76
2022/04/07 08:16:41;;;;;;;0.40;0.40;;;11.60;99.90;;;;;;5054729;28;20981;-77
2022/04/07 08:19:10;;;;;;;0.63;0.40;;;11.50;99.90;;;;;;5055340;28;20501;-77
2022/04/07 08:21:38;;;;;;;0.40;0.40;;;11.50;99.90;;;;;;5058191;28;20487;-77
2022/04/07 08:24:06;;;;;;;0.40;0.40;;;11.60;99.90;;;;;;5055684;28;20468;-78
2022/04/07 08:26:35;;;;;;;0.40;0.40;;;11.70;99.90;;;;;;5057892;28;21015;-77
2022/04/07 08:29:03;;;;;;;0.50;0.50;;;11.80;99.90;;;;;;5061990;28;20985;-77
2022/04/07 08:31:31;;;;;;;0.40;0.40;;;11.70;99.90;;;;;;5056902;28;20462;-77
2022/04/07 08:34:01;;;;;;;0.40;0.40;;;11.80;99.90;;;;;;5057497;28;20463;-78
2022/04/07 08:36:34;;;;;;;0.40;0.40;;;12.00;99.90;;;;;;5060671;28;20462;-77
2022/04/07 08:39:02;;;;;;;0.40;0.40;;;12.10;99.90;;;;;;5061204;28;20458;-77
2022/04/07 08:41:31;;;;;;;0.63;0.50;;;12.10;99.90;;;;;;5057611;28;20461;-77
2022/04/07 08:43:59;;;;;;;0.53;0.53;;;12.20;99.90;;;;;;5054153;28;21057;-77
2022/04/07 08:46:33;;;;;;;0.40;0.40;;;12.20;99.90;;;;;;5052386;28;20506;-77
2022/04/07 08:49:05;;;;;;;0.50;0.50;;;12.10;99.90;;;;;;5057804;28;20518;-77
2022/04/07 08:51:34;;;;;;;1.23;0.50;;;12.00;99.90;;;;;;5054809;28;20463;-77
2022/04/07 08:54:02;;;;;;;0.40;0.40;;;12.20;99.90;;;;;;5053501;28;20458;-78
2022/04/07 08:56:30;;;;;;;1.93;0.50;;;12.40;99.90;;;;;;5053691;28;20458;-77
2022/04/07 08:58:58;;;;;;;0.80;0.30;;;12.50;99.90;;;;;;5056028;28;21428;-78
2022/04/07 09:01:27;;;;;;;0.40;0.40;;;12.20;99.90;;;;;;5056529;28;21131;-77
2022/04/07 09:03:56;;;;;;;0.40;0.40;;;12.20;99.90;;;;;;5050905;28;20461;-77
2022/04/07 09:06:28;;;;;;;0.33;0.33;;;12.20;99.90;;;;;;5058373;28;20508;-77
2022/04/07 09:08:56;;;;;;;0.30;0.30;;;12.20;99.90;;;;;;5058293;28;20470;-77
2022/04/07 09:11:24;;;;;;;0.93;0.40;;;12.20;99.90;;;;;;5058929;28;20460;-78
2022/04/07 09:13:54;;;;;;;2.97;0.60;;;12.30;99.90;;;;;;5055250;28;20575;-72
2022/04/07 09:16:22;;;;;;;0.40;0.40;;;12.20;99.90;;;;;;5054951;28;21177;-80
2022/04/07 09:18:52;;;;;;;1.20;0.30;;;12.30;99.90;;;;;;5063080;28;20537;-78
2022/04/07 09:21:31;;;;;;;0.40;0.40;;;12.50;99.90;;;;;;5059443;28;20473;-79
2022/04/07 09:24:00;;;;;;;1.63;0.50;;;12.50;99.90;;;;;;5052343;28;20981;-78
2022/04/07 09:26:29;;;;;;;0.50;0.40;;;12.50;99.90;;;;;;5058120;28;20474;-79
2022/04/07 09:28:58;;;;;;;0.60;0.40;;;12.50;99.90;;;;;;5055532;28;20466;-79
2022/04/07 09:31:27;;;;;;;0.40;0.40;;;12.60;99.90;;;;;;5054401;28;20451;-78
2022/04/07 09:33:57;;;;;;;1.37;0.50;;;12.60;99.90;;;;;;5054325;28;20537;-80
2022/04/07 09:36:26;;;;;;;0.40;0.40;;;12.40;99.90;;;;;;5054117;28;20448;-78
2022/04/07 09:38:58;;;;;;;0.40;0.40;;;12.40;99.90;;;;;;5056129;28;20453;-78
2022/04/07 09:41:29;;;;;;;2.63;0.50;;;12.30;99.90;;;;;;5057079;28;20581;-78
2022/04/07 09:43:59;;;;;;;0.50;0.50;;;12.20;99.90;;;;;;5052686;28;20458;-77
2022/04/07 09:46:32;;;;;;;0.40;0.40;;;12.20;99.90;;;;;;5059390;28;20449;-77
2022/04/07 09:49:04;;;;;;;0.40;0.40;;;12.20;99.90;;;;;;5057130;28;20462;-79
2022/04/07 09:51:45;;;;;;;0.40;0.40;;;12.20;99.90;;;;;;5063180;28;20463;-78
2022/04/07 09:54:17;;;;;;;0.40;0.40;;;12.20;99.90;;;;;;5049736;28;20516;-78
2022/04/07 09:56:48;;;;;;;0.50;0.50;;;12.30;99.90;;;;;;5051278;28;20543;-78
2022/04/07 09:59:19;;;;;;;1.00;0.50;;;12.30;99.90;;;;;;5053448;28;20561;-79
2022/04/07 10:01:50;;;;;;;1.13;0.40;;;12.40;99.90;;;;;;5049484;28;21080;-79
2022/04/07 10:04:21;;;;;;;0.40;0.40;;;12.40;99.90;;;;;;5054075;28;20823;-78
2022/04/07 10:06:52;;;;;;;0.40;0.40;;;12.40;99.90;;;;;;5058933;28;20457;-78
2022/04/07 10:09:23;;;;;;;0.50;0.37;;;12.50;99.90;;;;;;5058184;28;20455;-78
2022/04/07 10:11:52;;;;;;;0.87;0.50;;;12.40;99.90;;;;;;5052659;28;20480;-78
2022/04/07 10:14:22;;;;;;;0.40;0.40;;;12.40;99.90;;;;;;5055559;28;20448;-78
2022/04/07 10:16:50;;;;;;;0.43;0.43;;;12.40;99.90;;;;;;5051846;28;20543;-78
2022/04/07 10:19:22;;;;;;;0.40;0.40;;;12.40;99.90;;;;;;5050002;28;20458;-79
2022/04/07 10:22:19;;;;;;;0.30;0.30;;;12.40;99.90;;;;;;5050836;28;21004;-78
2022/04/07 10:24:52;;;;;;;0.70;0.40;;;12.40;99.90;;;;;;5057919;28;20466;-78
2022/04/07 10:27:43;;;;;;;0.50;0.50;;;12.40;99.90;;;;;;5052925;28;20617;-76
2022/04/07 10:30:13;;;;;;;0.73;0.50;;;12.40;99.90;;;;;;5052449;28;22328;-77
2022/04/07 10:32:43;;;;;;;0.43;0.40;;;12.40;99.90;;;;;;5050443;28;20930;-78
2022/04/07 10:35:28;;;;;;;0.40;0.40;;;12.40;99.90;;;;;;5060991;28;20450;-78
2022/04/07 10:37:56;;;;;;;0.40;0.40;;;12.30;99.90;;;;;;5061971;28;20442;-78
2022/04/07 10:40:37;;;;;;;0.40;0.40;;;12.30;99.90;;;;;;5059071;28;20992;-78
2022/04/07 10:43:22;;;;;;;0.47;0.47;;;12.30;99.90;;;;;;5057473;28;20475;-78
2022/04/07 10:45:52;;;;;;;0.57;0.50;;;12.40;99.90;;;;;;5054685;28;20466;-79
2022/04/07 10:48:35;;;;;;;0.40;0.40;;;12.40;99.90;;;;;;5055927;28;20499;-78
2022/04/07 10:51:05;;;;;;;0.50;0.50;;;12.30;99.90;;;;;;5059966;28;20450;-78
2022/04/07 10:53:35;;;;;;;1.07;1.07;;;12.40;99.90;;;;;;5060374;28;20470;-79
2022/04/07 10:56:10;;;;;;;2.73;0.53;;;12.40;99.90;;;;;;5062220;28;20469;-79
2022/04/07 10:58:40;;;;;;;0.40;0.40;;;12.50;99.90;;;;;;5059818;28;20454;-79
2022/04/07 11:01:14;;;;;;;1.03;0.30;;;12.50;99.90;;;;;;5063560;28;20443;-80
2022/04/07 11:04:03;;;;;;;1.90;0.50;;;12.60;99.90;;;;;;5062244;28;20475;-79
2022/04/07 11:06:31;;;;;;;0.40;0.40;;;12.70;99.90;;;;;;5053271;28;20462;-78
2022/04/07 11:09:23;;;;;;;0.30;0.30;;;12.70;99.90;;;;;;5053360;28;20539;-79
2022/04/07 11:11:55;;;;;;;0.80;0.47;;;12.70;99.90;;;;;;5043020;28;20494;-78
2022/04/07 11:14:27;;;;;;;0.40;0.40;;;12.60;99.90;;;;;;5061285;28;20493;-80
2022/04/07 11:16:59;;;;;;;2.00;0.60;;;12.60;99.90;;;;;;5063248;28;20443;-79
2022/04/07 11:19:41;;;;;;;0.40;0.40;;;12.70;99.90;;;;;;5060550;28;20463;-79
2022/04/07 11:22:12;;;;;;;1.33;0.30;;;12.70;99.90;;;;;;5059133;28;20470;-79
2022/04/07 11:24:44;;;;;;;0.93;0.40;;;12.90;99.90;;;;;;5059249;28;20466;-79
2022/04/07 11:27:36;;;;;;;0.47;0.40;;;13.00;99.90;;;;;;5062650;28;20466;-78
2022/04/07 11:30:06;;;;;;;1.23;0.40;;;13.00;99.90;;;;;;5058439;28;20671;-78
2022/04/07 11:32:35;;;;;;;0.40;0.40;;;13.20;99.90;;;;;;5058927;28;21133;-77
2022/04/07 11:35:13;;;;;;;0.63;0.40;;;13.20;99.90;;;;;;5056345;28;20998;-82
2022/04/07 11:37:42;;;;;;;0.40;0.40;;;13.20;99.90;;;;;;5057703;28;20865;-80
2022/04/07 11:40:11;;;;;;;0.53;0.30;;;13.20;99.90;;;;;;5064895;28;20450;-81
2022/04/07 11:42:40;;;;;;;0.40;0.40;;;13.10;99.90;;;;;;5065207;28;20859;-81
2022/04/07 11:45:10;;;;;;;0.40;0.40;;;13.00;99.90;;;;;;5059714;28;20454;-82
2022/04/07 11:47:38;;;;;;;1.50;0.40;;;13.00;99.90;;;;;;5060467;28;20454;-82
2022/04/07 11:50:08;;;;;;;0.60;0.50;;;12.90;99.90;;;;;;5066438;28;20457;-83
2022/04/07 11:52:37;;;;;;;0.80;0.40;;;12.80;99.90;;;;;;5067616;28;20469;-81
2022/04/07 11:55:06;;;;;;;0.40;0.40;;;12.80;99.90;;;;;;5066246;28;20451;-82
2022/04/07 11:57:35;;;;;;;0.40;0.40;;;12.90;99.90;;;;;;5064413;28;20454;-81
2022/04/07 12:00:10;;;;;;;0.40;0.40;;;12.90;99.90;;;;;;5068499;28;20475;-81
2022/04/07 12:02:38;;;;;;;0.60;0.40;;;13.00;99.90;;;;;;5061696;28;20473;-82
2022/04/07 12:05:07;;;;;;;1.23;0.40;;;12.90;99.90;;;;;;5063128;28;20451;-82
2022/04/07 12:07:36;;;;;;;0.30;0.30;;;12.90;99.90;;;;;;5067516;28;20469;-81
2022/04/07 12:10:09;;;;;;;0.57;0.40;;;12.90;99.90;;;;;;5066096;28;20982;-83
2022/04/07 12:12:41;;;;;;;0.50;0.50;;;12.70;99.90;;;;;;5070693;28;21257;-82
2022/04/07 12:15:13;;;;;;;0.40;0.40;;;12.60;99.90;;;;;;5070574;28;20534;-82
2022/04/07 12:18:00;;;;;;;0.80;0.40;;;12.70;99.90;;;;;;5068380;28;20568;-83
2022/04/07 12:20:29;;;;;;;0.40;0.40;;;12.60;99.90;;;;;;5069110;28;20513;-82
2022/04/07 12:23:07;;;;;;;0.40;0.40;;;12.60;99.90;;;;;;5069286;28;20481;-83
2022/04/07 12:25:36;;;;;;;0.57;0.40;;;12.50;99.90;;;;;;5072599;28;20477;-82
2022/04/07 12:28:08;;;;;;;0.40;0.40;;;12.40;99.90;;;;;;5067136;28;20533;-81
2022/04/07 12:30:46;;;;;;;0.97;0.30;;;12.40;99.90;;;;;;5067580;28;21001;-82
2022/04/07 12:33:39;;;;;;;0.40;0.40;;;12.40;99.90;;;;;;5068208;28;20466;-83
2022/04/07 12:36:08;;;;;;;0.93;0.30;;;12.30;99.90;;;;;;5071464;28;20473;-83
2022/04/07 12:38:37;;;;;;;0.40;0.30;;;12.30;99.90;;;;;;5069151;28;20453;-80
2022/04/07 12:41:11;;;;;;;0.40;0.40;;;12.20;99.90;;;;;;5067881;28;20505;-83
2022/04/07 12:43:49;;;;;;;0.40;0.40;;;12.30;99.90;;;;;;5062623;28;20502;-81
2022/04/07 12:46:20;;;;;;;0.87;0.40;;;12.40;99.90;;;;;;5066298;28;20443;-82
2022/04/07 12:49:05;;;;;;;1.43;0.40;;;12.40;99.90;;;;;;5067226;28;20478;-84
2022/04/07 12:51:34;;;;;;;0.40;0.40;;;12.30;99.90;;;;;;5064819;28;20446;-83
2022/04/07 12:54:08;;;;;;;0.50;0.40;;;12.30;99.90;;;;;;5065318;28;20449;-83
2022/04/07 12:56:37;;;;;;;0.53;0.43;;;12.20;99.90;;;;;;5071944;28;20450;-82
2022/04/07 12:59:08;;;;;;;0.30;0.30;;;12.30;99.90;;;;;;5063427;28;20455;-83
2022/04/07 13:01:39;;;;;;;0.87;0.47;;;12.50;99.90;;;;;;5066950;28;20458;-83